createdAt,value
2022-09-26T00:01:32.392Z,56.50
2022-09-26T00:04:08.972Z,29.83
2022-09-26T00:06:36.882Z,22.08
2022-09-26T00:09:04.030Z,17.42
2022-09-26T00:11:33.445Z,18.65
2022-09-26T00:14:04.430Z,17.73
2022-09-26T00:16:32.074Z,22.08
2022-09-26T00:19:00.119Z,22.25
2022-09-26T00:21:30.083Z,23.50
2022-09-26T00:23:58.292Z,25.38
2022-09-26T00:26:26.560Z,38.47
2022-09-26T00:28:54.722Z,30.55
2022-09-26T00:31:29.067Z,26.88
2022-09-26T00:33:57.746Z,28.73
2022-09-26T00:36:37.024Z,28.38
2022-09-26T00:39:06.061Z,23.17
2022-09-26T00:41:33.491Z,28.80
2022-09-26T00:44:00.618Z,27.23
2022-09-26T00:46:32.116Z,25.08
2022-09-26T00:49:10.883Z,27.88
2022-09-26T00:51:41.351Z,27.45
2022-09-26T00:54:14.760Z,24.55
2022-09-26T00:56:45.627Z,28.85
2022-09-26T00:59:33.100Z,27.45
2022-09-26T01:02:02.147Z,26.05
2022-09-26T01:04:32.916Z,24.95
2022-09-26T01:07:03.778Z,26.98
2022-09-26T01:09:32.255Z,27.25
2022-09-26T01:12:01.392Z,26.73
2022-09-26T01:14:28.983Z,57.00
2022-09-26T01:16:57.120Z,43.40
2022-09-26T01:19:56.839Z,48.00
2022-09-26T01:23:02.268Z,42.00
2022-09-26T01:25:29.237Z,30.83
2022-09-26T01:28:08.249Z,28.25
2022-09-26T01:31:24.351Z,27.90
2022-09-26T01:34:10.454Z,27.50
2022-09-26T01:37:01.974Z,26.30
2022-09-26T01:39:52.344Z,24.50
2022-09-26T01:42:42.522Z,31.48
2022-09-26T01:45:23.040Z,32.15
2022-09-26T01:48:30.748Z,41.72
2022-09-26T01:51:03.715Z,31.30
2022-09-26T01:53:31.360Z,28.30
2022-09-26T01:56:07.907Z,27.85
2022-09-26T01:58:41.629Z,24.73
2022-09-26T02:01:13.777Z,27.90
2022-09-26T02:03:50.678Z,28.60
2022-09-26T02:06:27.152Z,30.50
2022-09-26T02:08:59.228Z,30.17
2022-09-26T02:11:26.878Z,31.40
2022-09-26T02:14:12.752Z,30.48
2022-09-26T02:16:52.682Z,37.80
2022-09-26T02:19:51.849Z,30.08
2022-09-26T02:22:19.570Z,27.88
2022-09-26T02:24:46.682Z,28.52
2022-09-26T02:27:14.195Z,31.25
2022-09-26T02:29:43.348Z,30.40
2022-09-26T02:32:21.725Z,30.27
2022-09-26T02:34:50.297Z,30.38
2022-09-26T02:37:20.990Z,29.58
2022-09-26T02:39:50.721Z,31.48
2022-09-26T02:42:44.344Z,31.93
2022-09-26T02:45:26.556Z,29.95
2022-09-26T02:48:44.904Z,33.78
2022-09-26T02:51:28.656Z,33.55
2022-09-26T02:54:20.419Z,36.28
2022-09-26T02:57:22.529Z,32.60
2022-09-26T03:00:12.337Z,33.15
2022-09-26T03:03:16.583Z,71.75
2022-09-26T03:05:47.017Z,49.47
2022-09-26T03:08:18.779Z,53.85
2022-09-26T03:10:48.537Z,80.43
2022-09-26T03:13:17.080Z,49.58
2022-09-26T03:15:49.210Z,65.35
2022-09-26T03:18:24.589Z,45.55
2022-09-26T03:20:54.192Z,40.42
2022-09-26T03:23:26.480Z,38.55
2022-09-26T03:26:08.992Z,36.15
2022-09-26T03:28:38.461Z,39.60
2022-09-26T03:31:06.106Z,47.15
2022-09-26T03:33:44.548Z,51.92
2022-09-26T03:36:11.578Z,44.03
2022-09-26T03:38:38.914Z,41.25
2022-09-26T03:41:17.863Z,36.88
2022-09-26T03:43:45.014Z,35.58
2022-09-26T03:46:15.900Z,34.38
2022-09-26T03:48:43.660Z,33.67
2022-09-26T03:51:14.673Z,35.83
2022-09-26T03:53:43.544Z,36.15
2022-09-26T03:56:18.231Z,39.00
2022-09-26T03:58:45.833Z,49.75
2022-09-26T04:01:15.780Z,44.78
2022-09-26T04:03:50.018Z,48.92
2022-09-26T04:06:21.907Z,43.28
2022-09-26T04:08:52.608Z,40.17
2022-09-26T04:11:21.852Z,42.88
2022-09-26T04:13:52.979Z,40.28
2022-09-26T04:16:24.407Z,37.63
2022-09-26T04:19:01.674Z,35.00
2022-09-26T04:21:29.804Z,34.60
2022-09-26T04:23:59.040Z,34.67
2022-09-26T04:26:26.137Z,37.53
2022-09-26T04:28:56.394Z,44.90
2022-09-26T04:31:33.153Z,42.40
2022-09-26T04:34:09.794Z,67.57
2022-09-26T04:36:36.907Z,44.55
2022-09-26T04:39:05.082Z,39.92
2022-09-26T04:41:33.090Z,36.78
2022-09-26T04:44:01.839Z,34.17
2022-09-26T04:46:31.557Z,32.88
2022-09-26T04:49:01.298Z,33.22
2022-09-26T04:51:30.245Z,34.30
2022-09-26T04:53:59.117Z,33.40
2022-09-26T04:56:29.693Z,36.08
2022-09-26T04:58:58.699Z,94.40
2022-09-26T05:01:31.335Z,77.25
2022-09-26T05:04:07.272Z,54.10
2022-09-26T05:06:35.019Z,49.22
2022-09-26T05:09:04.414Z,29.23
2022-09-26T05:12:07.119Z,27.38
2022-09-26T05:14:36.261Z,27.15
2022-09-26T05:17:04.732Z,27.48
2022-09-26T05:19:32.982Z,26.92
2022-09-26T05:22:18.774Z,27.30
2022-09-26T05:25:04.618Z,26.63
2022-09-26T05:27:32.327Z,23.98
2022-09-26T05:30:00.955Z,25.50
2022-09-26T05:32:29.347Z,24.63
2022-09-26T05:34:57.648Z,27.80
2022-09-26T05:37:26.979Z,26.52
2022-09-26T05:40:12.668Z,23.08
2022-09-26T05:42:45.423Z,23.35
2022-09-26T05:45:13.819Z,20.40
2022-09-26T05:47:42.392Z,19.10
2022-09-26T05:50:10.903Z,24.00
2022-09-26T05:52:39.817Z,26.40
2022-09-26T05:55:11.860Z,26.13
2022-09-26T05:57:59.834Z,25.45
2022-09-26T06:00:42.723Z,30.40
2022-09-26T06:03:10.121Z,28.92
2022-09-26T06:05:52.004Z,27.20
2022-09-26T06:08:24.303Z,31.98
2022-09-26T06:11:09.493Z,24.13
2022-09-26T06:13:37.089Z,21.13
2022-09-26T06:16:06.457Z,20.48
2022-09-26T06:18:35.783Z,26.73
2022-09-26T06:21:07.644Z,31.33
2022-09-26T06:23:35.945Z,32.20
2022-09-26T06:26:20.434Z,22.55
2022-09-26T06:28:49.998Z,23.85
2022-09-26T06:31:19.969Z,26.27
2022-09-26T06:34:26.451Z,26.65
2022-09-26T06:39:49.471Z,25.75
2022-09-26T06:42:16.614Z,22.63
2022-09-26T06:45:11.713Z,23.73
2022-09-26T06:48:02.744Z,20.88
2022-09-26T06:50:34.712Z,20.83
2022-09-26T06:53:08.390Z,21.63
2022-09-26T06:55:40.356Z,23.33
2022-09-26T06:58:08.182Z,20.90
2022-09-26T07:00:49.118Z,18.38
2022-09-26T07:03:45.725Z,20.38
2022-09-26T07:06:32.214Z,18.25
2022-09-26T07:09:03.795Z,22.65
2022-09-26T07:12:13.482Z,21.23
2022-09-26T07:14:42.814Z,15.73
2022-09-26T07:17:27.767Z,21.77
2022-09-26T07:20:04.382Z,15.55
2022-09-26T07:22:51.115Z,20.17
2022-09-26T07:25:18.390Z,14.88
2022-09-26T07:27:50.548Z,16.65
2022-09-26T07:30:20.816Z,15.80
2022-09-26T07:33:03.181Z,12.63
2022-09-26T07:35:46.617Z,15.27
2022-09-26T07:38:13.905Z,16.02
2022-09-26T07:40:44.776Z,14.52
2022-09-26T07:43:21.244Z,14.05
2022-09-26T07:46:13.674Z,14.82
2022-09-26T07:49:23.872Z,12.70
2022-09-26T07:52:09.846Z,15.75
2022-09-26T07:55:04.023Z,12.80
2022-09-26T07:57:50.148Z,12.85
2022-09-26T08:00:40.730Z,11.43
2022-09-26T08:03:46.155Z,11.57
2022-09-26T08:06:25.833Z,11.33
2022-09-26T08:08:58.599Z,11.10
2022-09-26T08:12:04.592Z,11.30
2022-09-26T08:15:00.897Z,12.18
2022-09-26T08:17:44.356Z,12.15
2022-09-26T08:20:12.814Z,14.85
2022-09-26T08:22:39.911Z,12.90
2022-09-26T08:25:08.422Z,13.50
2022-09-26T08:27:43.832Z,13.13
2022-09-26T08:30:13.928Z,13.70
2022-09-26T08:32:41.737Z,14.35
2022-09-26T08:35:12.237Z,22.02
2022-09-26T08:38:07.546Z,17.00
2022-09-26T08:41:03.181Z,12.68
2022-09-26T08:44:11.470Z,12.57
2022-09-26T08:47:02.265Z,13.60
2022-09-26T08:50:23.427Z,12.25
2022-09-26T08:52:58.183Z,11.18
2022-09-26T08:55:32.757Z,10.60
2022-09-26T08:58:08.356Z,10.70
2022-09-26T09:00:38.206Z,11.75
2022-09-26T09:03:20.580Z,10.23
2022-09-26T09:06:07.465Z,11.30
2022-09-26T09:08:51.457Z,11.43
2022-09-26T09:11:49.129Z,12.18
2022-09-26T09:14:35.965Z,11.73
2022-09-26T09:17:37.947Z,12.02
2022-09-26T09:23:56.292Z,11.63
2022-09-26T09:29:26.868Z,9.27
2022-09-26T09:32:18.869Z,8.55
2022-09-26T09:35:16.607Z,9.60
2022-09-26T09:38:03.292Z,9.05
2022-09-26T09:40:46.693Z,9.38
2022-09-26T09:43:33.927Z,9.35
2022-09-26T09:46:14.010Z,10.18
2022-09-26T09:48:41.242Z,11.02
2022-09-26T09:51:51.531Z,10.63
2022-09-26T09:54:40.381Z,9.40
2022-09-26T09:57:10.406Z,9.93
2022-09-26T10:00:02.357Z,11.18
2022-09-26T10:03:02.243Z,8.63
2022-09-26T10:05:45.377Z,9.13
2022-09-26T10:08:27.057Z,11.05
2022-09-26T10:11:34.615Z,8.32
2022-09-26T10:14:31.407Z,7.15
2022-09-26T10:17:10.212Z,8.73
2022-09-26T10:19:47.378Z,8.38
2022-09-26T10:22:25.159Z,8.75
2022-09-26T10:25:08.621Z,9.15
2022-09-26T10:27:46.882Z,7.43
2022-09-26T10:30:32.571Z,7.65
2022-09-26T10:33:25.600Z,7.78
2022-09-26T10:36:40.258Z,7.97
2022-09-26T10:39:38.557Z,9.15
2022-09-26T10:42:16.147Z,7.95
2022-09-26T10:44:43.315Z,18.33
2022-09-26T10:47:26.277Z,12.50
2022-09-26T10:50:16.558Z,7.88
2022-09-26T10:53:01.303Z,7.20
2022-09-26T10:55:36.574Z,7.20
2022-09-26T10:58:13.684Z,11.13
2022-09-26T11:00:50.425Z,8.57
2022-09-26T11:03:33.923Z,8.20
2022-09-26T11:06:34.094Z,9.15
2022-09-26T11:09:20.712Z,7.40
2022-09-26T11:12:28.778Z,12.00
2022-09-26T11:15:11.615Z,8.07
2022-09-26T11:17:48.009Z,7.97
2022-09-26T11:20:37.892Z,7.13
2022-09-26T11:23:32.053Z,7.50
2022-09-26T11:26:03.815Z,6.43
2022-09-26T11:28:47.227Z,6.90
2022-09-26T11:31:26.478Z,6.63
2022-09-26T11:34:26.693Z,7.30
2022-09-26T11:37:17.355Z,6.53
2022-09-26T11:40:14.417Z,7.85
2022-09-26T11:42:57.731Z,10.20
2022-09-26T11:45:57.265Z,7.20
2022-09-26T11:49:11.024Z,7.28
2022-09-26T11:52:37.211Z,7.68
2022-09-26T11:55:15.164Z,5.75
2022-09-26T11:58:03.691Z,6.75
2022-09-26T12:00:49.425Z,8.50
2022-09-26T12:03:50.214Z,7.15
2022-09-26T12:06:38.683Z,7.07
2022-09-26T12:09:37.598Z,10.05
2022-09-26T12:12:09.628Z,6.75
2022-09-26T12:15:08.173Z,6.85
2022-09-26T12:17:59.604Z,9.88
2022-09-26T12:20:57.127Z,7.78
2022-09-26T12:23:40.064Z,8.20
2022-09-26T12:26:19.931Z,6.93
2022-09-26T12:28:59.136Z,6.80
2022-09-26T12:31:39.107Z,5.18
2022-09-26T12:34:21.189Z,6.57
2022-09-26T12:37:05.974Z,7.13
2022-09-26T12:42:52.338Z,5.32
2022-09-26T12:45:31.690Z,6.93
2022-09-26T12:48:25.327Z,7.50
2022-09-26T12:51:28.678Z,7.00
2022-09-26T12:54:25.400Z,8.20
2022-09-26T12:57:04.293Z,10.13
2022-09-26T12:59:43.889Z,8.13
2022-09-26T13:02:20.127Z,7.22
2022-09-26T13:05:37.010Z,4.97
2022-09-26T13:08:16.003Z,6.15
2022-09-26T13:10:55.462Z,10.27
2022-09-26T13:13:48.341Z,7.57
2022-09-26T13:16:40.979Z,7.07
2022-09-26T13:19:34.908Z,6.80
2022-09-26T13:22:14.694Z,9.02
2022-09-26T13:24:51.402Z,11.23
2022-09-26T13:27:30.006Z,10.75
2022-09-26T13:30:03.378Z,10.05
2022-09-26T13:32:47.943Z,9.25
2022-09-26T13:35:16.896Z,9.20
2022-09-26T13:37:48.013Z,7.13
2022-09-26T13:40:33.136Z,6.63
2022-09-26T13:43:19.238Z,6.40
2022-09-26T13:46:06.075Z,8.05
2022-09-26T13:48:49.034Z,9.85
2022-09-26T13:51:41.968Z,10.25
2022-09-26T13:54:31.331Z,7.53
2022-09-26T13:56:58.325Z,6.05
2022-09-26T13:59:34.347Z,12.40
2022-09-26T14:02:17.960Z,9.27
2022-09-26T14:04:55.832Z,9.27
2022-09-26T14:07:56.286Z,28.65
2022-09-26T14:10:34.325Z,11.45
2022-09-26T14:13:03.450Z,14.30
2022-09-26T14:15:49.397Z,9.85
2022-09-26T14:18:45.480Z,7.25
2022-09-26T14:21:33.885Z,8.95
2022-09-26T14:24:33.469Z,14.18
2022-09-26T14:27:09.846Z,8.18
2022-09-26T14:29:39.668Z,9.38
2022-09-26T14:32:10.473Z,11.05
2022-09-26T14:34:37.636Z,13.95
2022-09-26T14:37:29.748Z,9.60
2022-09-26T14:39:59.997Z,9.43
2022-09-26T14:42:49.294Z,12.05
2022-09-26T14:45:16.647Z,10.02
2022-09-26T14:47:51.051Z,7.72
2022-09-26T14:50:26.816Z,8.02
2022-09-26T14:52:57.010Z,9.82
2022-09-26T14:55:25.430Z,10.50
2022-09-26T14:57:52.912Z,12.50
2022-09-26T15:00:40.610Z,8.60
2022-09-26T15:03:14.673Z,40.03
2022-09-26T15:05:42.900Z,10.37
2022-09-26T15:08:28.039Z,9.35
2022-09-26T15:10:58.137Z,18.45
2022-09-26T15:13:42.610Z,24.80
2022-09-26T15:16:29.229Z,14.27
2022-09-26T15:19:07.062Z,12.43
2022-09-26T15:21:44.755Z,11.93
2022-09-26T15:24:36.599Z,19.25
2022-09-26T15:27:18.711Z,15.65
2022-09-26T15:29:49.682Z,10.70
2022-09-26T15:32:38.999Z,10.60
2022-09-26T15:35:11.005Z,10.20
2022-09-26T15:37:38.557Z,25.85
2022-09-26T15:40:21.582Z,34.97
2022-09-26T15:42:59.011Z,24.80
2022-09-26T15:45:46.386Z,24.23
2022-09-26T15:48:20.237Z,19.55
2022-09-26T15:50:53.534Z,27.00
2022-09-26T15:53:44.945Z,14.10
2022-09-26T15:56:13.725Z,13.77
2022-09-26T15:58:52.945Z,13.23
2022-09-26T16:01:26.849Z,12.05
2022-09-26T16:04:07.459Z,19.70
2022-09-26T16:06:37.937Z,13.25
2022-09-26T16:09:13.421Z,14.05
2022-09-26T16:11:50.184Z,14.48
2022-09-26T16:14:48.004Z,9.68
2022-09-26T16:17:23.583Z,10.88
2022-09-26T16:19:54.202Z,17.45
2022-09-26T16:22:21.658Z,18.40
2022-09-26T16:24:50.898Z,21.98
2022-09-26T16:27:26.760Z,24.13
2022-09-26T16:29:53.871Z,37.35
2022-09-26T16:32:22.229Z,40.28
2022-09-26T16:34:49.820Z,20.58
2022-09-26T16:37:18.840Z,31.10
2022-09-26T16:40:01.378Z,28.83
2022-09-26T16:42:33.487Z,33.03
2022-09-26T16:45:04.572Z,23.65
2022-09-26T16:47:42.644Z,21.08
2022-09-26T16:50:26.572Z,26.00
2022-09-26T16:52:54.624Z,26.50
2022-09-26T16:55:27.310Z,33.00
2022-09-26T16:57:59.623Z,42.47
2022-09-26T17:00:52.643Z,83.50
2022-09-26T17:03:24.259Z,84.00
2022-09-26T17:05:57.525Z,75.10
2022-09-26T17:08:26.475Z,54.13
2022-09-26T17:10:56.342Z,36.60
2022-09-26T17:13:26.416Z,31.85
2022-09-26T17:16:00.696Z,23.63
2022-09-26T17:18:29.416Z,22.42
2022-09-26T17:20:59.284Z,23.55
2022-09-26T17:23:46.579Z,19.58
2022-09-26T17:26:21.538Z,29.13
2022-09-26T17:28:49.923Z,46.42
2022-09-26T17:31:21.605Z,43.03
2022-09-26T17:33:52.413Z,31.95
2022-09-26T17:36:27.505Z,29.75
2022-09-26T17:38:54.874Z,23.00
2022-09-26T17:41:23.190Z,23.90
2022-09-26T17:43:59.055Z,16.33
2022-09-26T17:46:27.184Z,24.00
2022-09-26T17:48:56.155Z,54.85
2022-09-26T17:51:24.077Z,48.00
2022-09-26T17:53:52.702Z,31.15
2022-09-26T17:56:20.759Z,31.67
2022-09-26T17:58:52.038Z,29.70
2022-09-26T18:01:24.288Z,30.60
2022-09-26T18:03:55.666Z,23.27
2022-09-26T18:06:27.457Z,48.20
2022-09-26T18:08:59.693Z,53.35
2022-09-26T18:11:27.491Z,31.10
2022-09-26T18:13:55.378Z,22.60
2022-09-26T18:16:23.501Z,18.65
2022-09-26T18:18:51.463Z,13.73
2022-09-26T18:21:19.930Z,9.27
2022-09-26T18:23:58.905Z,10.55
2022-09-26T18:26:32.206Z,22.38
2022-09-26T18:29:03.472Z,17.52
2022-09-26T18:31:33.184Z,18.77
2022-09-26T18:34:01.149Z,19.13
2022-09-26T18:36:35.716Z,19.75
2022-09-26T18:39:03.264Z,22.75
2022-09-26T18:41:30.822Z,21.52
2022-09-26T18:44:00.497Z,19.17
2022-09-26T18:46:29.426Z,17.02
2022-09-26T18:48:59.986Z,19.02
2022-09-26T18:51:27.719Z,18.40
2022-09-26T18:53:57.602Z,23.92
2022-09-26T18:56:42.962Z,16.63
2022-09-26T18:59:10.451Z,20.95
2022-09-26T19:01:41.364Z,18.65
2022-09-26T19:04:20.178Z,17.73
2022-09-26T19:06:54.544Z,16.20
2022-09-26T19:09:22.747Z,18.25
2022-09-26T19:11:49.983Z,17.60
2022-09-26T19:14:20.911Z,19.88
2022-09-26T19:16:50.581Z,16.65
2022-09-26T19:19:18.801Z,13.70
2022-09-26T19:21:52.867Z,13.13
2022-09-26T19:24:29.014Z,13.75
2022-09-26T19:26:58.966Z,13.52
2022-09-26T19:29:41.441Z,14.63
2022-09-26T19:32:21.844Z,16.40
2022-09-26T19:34:56.738Z,16.48
2022-09-26T19:37:23.739Z,17.02
2022-09-26T19:39:50.988Z,16.38
2022-09-26T19:42:18.340Z,18.05
2022-09-26T19:44:47.701Z,16.50
2022-09-26T19:47:19.874Z,19.80
2022-09-26T19:49:49.402Z,24.10
2022-09-26T19:52:20.330Z,20.67
2022-09-26T19:54:47.993Z,27.20
2022-09-26T19:57:22.042Z,26.40
2022-09-26T19:59:50.417Z,22.48
2022-09-26T20:02:20.955Z,19.92
2022-09-26T20:04:48.615Z,17.77
2022-09-26T20:07:18.950Z,16.15
2022-09-26T20:09:47.279Z,22.92
2022-09-26T20:12:15.089Z,22.08
2022-09-26T20:14:42.423Z,22.73
2022-09-26T20:17:40.278Z,19.17
2022-09-26T20:20:11.493Z,18.25
2022-09-26T20:22:41.655Z,17.10
2022-09-26T20:25:21.424Z,21.48
2022-09-26T20:27:50.607Z,18.02
2022-09-26T20:30:37.454Z,17.75
2022-09-26T20:33:05.000Z,19.38
2022-09-26T20:35:36.998Z,17.73
2022-09-26T20:38:07.558Z,20.20
2022-09-26T20:40:35.946Z,19.77
2022-09-26T20:43:10.247Z,19.00
2022-09-26T20:45:40.716Z,20.33
2022-09-26T20:48:19.506Z,19.60
2022-09-26T20:50:48.442Z,18.80
2022-09-26T20:53:20.598Z,21.98
2022-09-26T20:55:48.510Z,20.58
2022-09-26T20:58:18.786Z,35.55
2022-09-26T21:00:46.119Z,21.25
2022-09-26T21:03:16.013Z,29.02
2022-09-26T21:05:44.102Z,41.03
2022-09-26T21:08:26.300Z,29.10
2022-09-26T21:10:54.380Z,31.13
2022-09-26T21:13:23.369Z,25.58
2022-09-26T21:15:52.467Z,25.20
2022-09-26T21:18:25.764Z,20.98
2022-09-26T21:20:54.033Z,21.05
2022-09-26T21:23:43.114Z,20.70
2022-09-26T21:26:17.634Z,26.38
2022-09-26T21:28:44.934Z,25.98
2022-09-26T21:31:22.238Z,21.73
2022-09-26T21:33:49.760Z,21.13
2022-09-26T21:36:19.310Z,24.05
2022-09-26T21:38:46.728Z,27.90
2022-09-26T21:41:14.200Z,24.98
2022-09-26T21:43:46.113Z,26.15
2022-09-26T21:46:13.291Z,25.35
2022-09-26T21:48:40.354Z,20.92
2022-09-26T21:51:08.587Z,32.72
2022-09-26T21:53:46.836Z,22.55
2022-09-26T21:56:22.848Z,24.35
2022-09-26T21:58:53.025Z,23.05
2022-09-26T22:01:21.019Z,18.98
2022-09-26T22:03:47.968Z,21.33
2022-09-26T22:06:14.986Z,22.20
2022-09-26T22:08:42.617Z,21.45
2022-09-26T22:11:10.042Z,22.92
2022-09-26T22:13:38.083Z,19.65
2022-09-26T22:16:11.354Z,19.50
2022-09-26T22:18:40.114Z,23.10
2022-09-26T22:21:09.415Z,24.40
2022-09-26T22:23:37.642Z,30.98
2022-09-26T22:26:05.159Z,32.28
2022-09-26T22:28:32.846Z,31.48
2022-09-26T22:31:04.818Z,32.63
2022-09-26T22:33:32.414Z,32.55
2022-09-26T22:35:59.870Z,33.40
2022-09-26T22:38:27.046Z,27.00
2022-09-26T22:40:58.479Z,28.67
2022-09-26T22:43:26.726Z,26.83
2022-09-26T22:45:59.821Z,29.85
2022-09-26T22:48:50.065Z,27.30
2022-09-26T22:51:17.367Z,25.83
2022-09-26T22:53:45.076Z,26.00
2022-09-26T22:56:15.428Z,29.92
2022-09-26T22:58:45.297Z,28.05
2022-09-26T23:01:15.651Z,25.58
2022-09-26T23:03:43.038Z,27.75
2022-09-26T23:06:10.741Z,27.80
2022-09-26T23:08:38.409Z,26.40
2022-09-26T23:11:07.177Z,25.38
2022-09-26T23:13:35.610Z,24.88
2022-09-26T23:16:05.304Z,27.88
2022-09-26T23:18:34.756Z,25.58
2022-09-26T23:21:22.345Z,26.73
2022-09-26T23:23:51.820Z,28.70
2022-09-26T23:26:24.587Z,26.13
2022-09-26T23:28:53.412Z,26.33
2022-09-26T23:31:21.613Z,26.17
2022-09-26T23:33:49.242Z,26.65
2022-09-26T23:36:16.666Z,28.83
2022-09-26T23:38:45.208Z,30.23
2022-09-26T23:41:12.771Z,29.08
2022-09-26T23:43:40.589Z,32.67
2022-09-26T23:46:08.712Z,30.05
2022-09-26T23:48:35.952Z,30.85
2022-09-26T23:51:03.855Z,31.08
2022-09-26T23:53:31.616Z,29.92
2022-09-26T23:56:13.723Z,29.55
2022-09-26T23:58:41.674Z,32.42
